sensor_id;sensor_type;location;lat;lon;timestamp;temperature;humidity
5280;DHT22;2663;53.588;10.010;2022-11-20T00:00:16;3.50;99.90
5280;DHT22;2663;53.588;10.010;2022-11-20T00:02:43;3.50;99.90
5280;DHT22;2663;53.588;10.010;2022-11-20T00:05:10;3.50;99.90
5280;DHT22;2663;53.588;10.010;2022-11-20T00:07:36;3.40;99.90
5280;DHT22;2663;53.588;10.010;2022-11-20T00:10:04;3.50;99.90
5280;DHT22;2663;53.588;10.010;2022-11-20T00:12:31;3.50;99.90
5280;DHT22;2663;53.588;10.010;2022-11-20T00:14:57;3.50;99.90
5280;DHT22;2663;53.588;10.010;2022-11-20T00:17:24;3.40;99.90
5280;DHT22;2663;53.588;10.010;2022-11-20T00:19:51;3.60;99.90
5280;DHT22;2663;53.588;10.010;2022-11-20T00:22:17;3.40;99.90
5280;DHT22;2663;53.588;10.010;2022-11-20T00:24:44;3.40;99.90
5280;DHT22;2663;53.588;10.010;2022-11-20T00:27:10;3.30;99.90
5280;DHT22;2663;53.588;10.010;2022-11-20T00:29:37;3.40;99.90
5280;DHT22;2663;53.588;10.010;2022-11-20T00:32:04;3.40;99.90
5280;DHT22;2663;53.588;10.010;2022-11-20T00:34:30;3.30;99.90
5280;DHT22;2663;53.588;10.010;2022-11-20T00:36:57;3.40;99.90
5280;DHT22;2663;53.588;10.010;2022-11-20T00:39:24;3.40;99.90
5280;DHT22;2663;53.588;10.010;2022-11-20T00:41:50;3.40;99.90
5280;DHT22;2663;53.588;10.010;2022-11-20T00:44:17;3.40;99.90
5280;DHT22;2663;53.588;10.010;2022-11-20T00:46:43;3.30;99.90
5280;DHT22;2663;53.588;10.010;2022-11-20T00:49:10;3.30;99.90
5280;DHT22;2663;53.588;10.010;2022-11-20T00:51:37;3.30;99.90
5280;DHT22;2663;53.588;10.010;2022-11-20T00:54:03;3.20;99.90
5280;DHT22;2663;53.588;10.010;2022-11-20T00:56:30;3.20;99.90
5280;DHT22;2663;53.588;10.010;2022-11-20T00:58:59;3.20;99.90
5280;DHT22;2663;53.588;10.010;2022-11-20T01:01:26;3.20;99.90
5280;DHT22;2663;53.588;10.010;2022-11-20T01:03:55;3.30;99.90
5280;DHT22;2663;53.588;10.010;2022-11-20T01:06:39;3.30;99.90
5280;DHT22;2663;53.588;10.010;2022-11-20T01:09:11;3.30;99.90
5280;DHT22;2663;53.588;10.010;2022-11-20T01:11:41;3.30;99.90
5280;DHT22;2663;53.588;10.010;2022-11-20T01:14:11;3.30;99.90
5280;DHT22;2663;53.588;10.010;2022-11-20T01:16:41;4.00;99.90
5280;DHT22;2663;53.588;10.010;2022-11-20T01:19:11;3.40;99.90
5280;DHT22;2663;53.588;10.010;2022-11-20T01:21:44;3.30;99.90
5280;DHT22;2663;53.588;10.010;2022-11-20T01:24:13;3.40;99.90
5280;DHT22;2663;53.588;10.010;2022-11-20T01:26:42;3.30;99.90
5280;DHT22;2663;53.588;10.010;2022-11-20T01:29:14;3.20;99.90
5280;DHT22;2663;53.588;10.010;2022-11-20T01:31:41;3.10;99.90
5280;DHT22;2663;53.588;10.010;2022-11-20T01:34:14;3.00;99.90
5280;DHT22;2663;53.588;10.010;2022-11-20T01:36:42;3.00;99.90
5280;DHT22;2663;53.588;10.010;2022-11-20T01:39:18;3.00;99.90
5280;DHT22;2663;53.588;10.010;2022-11-20T01:41:46;3.10;99.90
5280;DHT22;2663;53.588;10.010;2022-11-20T01:44:56;3.20;99.90
5280;DHT22;2663;53.588;10.010;2022-11-20T01:47:36;3.20;99.90
5280;DHT22;2663;53.588;10.010;2022-11-20T01:50:23;3.20;99.90
5280;DHT22;2663;53.588;10.010;2022-11-20T01:52:56;3.20;99.90
5280;DHT22;2663;53.588;10.010;2022-11-20T01:55:37;3.20;99.90
5280;DHT22;2663;53.588;10.010;2022-11-20T01:58:06;3.20;99.90
5280;DHT22;2663;53.588;10.010;2022-11-20T02:00:33;3.30;99.90
5280;DHT22;2663;53.588;10.010;2022-11-20T02:03:03;3.20;99.90
5280;DHT22;2663;53.588;10.010;2022-11-20T02:05:38;3.20;99.90
5280;DHT22;2663;53.588;10.010;2022-11-20T02:08:08;3.20;99.90
5280;DHT22;2663;53.588;10.010;2022-11-20T02:10:35;3.20;99.90
5280;DHT22;2663;53.588;10.010;2022-11-20T02:13:02;3.20;99.90
5280;DHT22;2663;53.588;10.010;2022-11-20T02:15:48;3.20;99.90
5280;DHT22;2663;53.588;10.010;2022-11-20T02:18:18;3.20;99.90
5280;DHT22;2663;53.588;10.010;2022-11-20T02:20:48;3.10;99.90
5280;DHT22;2663;53.588;10.010;2022-11-20T02:23:38;3.00;99.90
5280;DHT22;2663;53.588;10.010;2022-11-20T02:26:08;3.10;99.90
5280;DHT22;2663;53.588;10.010;2022-11-20T02:28:37;3.10;99.90
5280;DHT22;2663;53.588;10.010;2022-11-20T02:31:04;3.30;99.90
5280;DHT22;2663;53.588;10.010;2022-11-20T02:33:30;3.20;99.90
5280;DHT22;2663;53.588;10.010;2022-11-20T02:35:57;3.20;99.90
5280;DHT22;2663;53.588;10.010;2022-11-20T02:38:24;3.20;99.90
5280;DHT22;2663;53.588;10.010;2022-11-20T02:40:50;3.20;99.90
5280;DHT22;2663;53.588;10.010;2022-11-20T02:43:21;3.20;99.90
5280;DHT22;2663;53.588;10.010;2022-11-20T02:45:49;3.20;99.90
5280;DHT22;2663;53.588;10.010;2022-11-20T02:48:15;3.30;99.90
5280;DHT22;2663;53.588;10.010;2022-11-20T02:50:42;3.30;99.90
5280;DHT22;2663;53.588;10.010;2022-11-20T02:53:09;3.30;99.90
5280;DHT22;2663;53.588;10.010;2022-11-20T02:55:35;3.20;99.90
5280;DHT22;2663;53.588;10.010;2022-11-20T02:58:02;3.30;99.90
5280;DHT22;2663;53.588;10.010;2022-11-20T03:00:29;3.50;99.90
5280;DHT22;2663;53.588;10.010;2022-11-20T03:02:56;3.40;99.90
5280;DHT22;2663;53.588;10.010;2022-11-20T03:05:22;3.40;99.90
5280;DHT22;2663;53.588;10.010;2022-11-20T03:07:49;3.50;99.90
5280;DHT22;2663;53.588;10.010;2022-11-20T03:10:15;3.50;99.90
5280;DHT22;2663;53.588;10.010;2022-11-20T03:12:42;3.40;99.90
5280;DHT22;2663;53.588;10.010;2022-11-20T03:15:09;3.40;99.90
5280;DHT22;2663;53.588;10.010;2022-11-20T03:17:36;3.30;99.90
5280;DHT22;2663;53.588;10.010;2022-11-20T03:20:03;3.40;99.90
5280;DHT22;2663;53.588;10.010;2022-11-20T03:22:30;3.40;99.90
5280;DHT22;2663;53.588;10.010;2022-11-20T03:24:56;3.50;99.90
5280;DHT22;2663;53.588;10.010;2022-11-20T03:27:23;3.50;99.90
5280;DHT22;2663;53.588;10.010;2022-11-20T03:29:50;3.40;99.90
5280;DHT22;2663;53.588;10.010;2022-11-20T03:32:16;3.50;99.90
5280;DHT22;2663;53.588;10.010;2022-11-20T03:34:43;3.40;99.90
5280;DHT22;2663;53.588;10.010;2022-11-20T03:37:09;3.20;99.90
5280;DHT22;2663;53.588;10.010;2022-11-20T03:39:36;3.30;99.90
5280;DHT22;2663;53.588;10.010;2022-11-20T03:42:03;3.30;99.90
5280;DHT22;2663;53.588;10.010;2022-11-20T03:44:49;3.40;99.90
5280;DHT22;2663;53.588;10.010;2022-11-20T03:47:16;3.20;99.90
5280;DHT22;2663;53.588;10.010;2022-11-20T03:49:42;3.20;99.90
5280;DHT22;2663;53.588;10.010;2022-11-20T03:52:09;3.30;99.90
5280;DHT22;2663;53.588;10.010;2022-11-20T03:54:36;3.30;99.90
5280;DHT22;2663;53.588;10.010;2022-11-20T03:57:02;3.40;99.90
5280;DHT22;2663;53.588;10.010;2022-11-20T03:59:29;3.30;99.90
5280;DHT22;2663;53.588;10.010;2022-11-20T04:01:55;3.40;99.90
5280;DHT22;2663;53.588;10.010;2022-11-20T04:04:22;3.30;99.90
5280;DHT22;2663;53.588;10.010;2022-11-20T04:06:49;3.30;99.90
5280;DHT22;2663;53.588;10.010;2022-11-20T04:09:15;3.30;99.90
5280;DHT22;2663;53.588;10.010;2022-11-20T04:11:42;3.40;99.90
5280;DHT22;2663;53.588;10.010;2022-11-20T04:14:16;3.30;99.90
5280;DHT22;2663;53.588;10.010;2022-11-20T04:16:43;3.40;99.90
5280;DHT22;2663;53.588;10.010;2022-11-20T04:19:12;4.00;99.90
5280;DHT22;2663;53.588;10.010;2022-11-20T04:21:39;3.50;99.90
5280;DHT22;2663;53.588;10.010;2022-11-20T04:24:06;3.30;99.90
5280;DHT22;2663;53.588;10.010;2022-11-20T04:26:34;3.30;99.90
5280;DHT22;2663;53.588;10.010;2022-11-20T04:29:00;3.40;99.90
5280;DHT22;2663;53.588;10.010;2022-11-20T04:31:32;3.40;99.90
5280;DHT22;2663;53.588;10.010;2022-11-20T04:34:03;3.30;99.90
5280;DHT22;2663;53.588;10.010;2022-11-20T04:36:31;3.30;99.90
5280;DHT22;2663;53.588;10.010;2022-11-20T04:39:01;3.30;99.90
5280;DHT22;2663;53.588;10.010;2022-11-20T04:41:31;3.40;99.90
5280;DHT22;2663;53.588;10.010;2022-11-20T04:44:00;3.40;99.90
5280;DHT22;2663;53.588;10.010;2022-11-20T04:46:38;3.30;99.90
5280;DHT22;2663;53.588;10.010;2022-11-20T04:49:05;3.30;99.90
5280;DHT22;2663;53.588;10.010;2022-11-20T04:51:32;3.30;99.90
5280;DHT22;2663;53.588;10.010;2022-11-20T04:53:59;3.40;99.90
5280;DHT22;2663;53.588;10.010;2022-11-20T04:56:26;3.40;99.90
5280;DHT22;2663;53.588;10.010;2022-11-20T04:58:52;3.40;99.90
5280;DHT22;2663;53.588;10.010;2022-11-20T05:01:22;3.40;99.90
5280;DHT22;2663;53.588;10.010;2022-11-20T05:03:49;3.40;99.90
5280;DHT22;2663;53.588;10.010;2022-11-20T05:06:18;3.30;99.90
5280;DHT22;2663;53.588;10.010;2022-11-20T05:08:46;3.30;99.90
5280;DHT22;2663;53.588;10.010;2022-11-20T05:11:16;3.30;99.90
5280;DHT22;2663;53.588;10.010;2022-11-20T05:13:43;3.30;99.90
5280;DHT22;2663;53.588;10.010;2022-11-20T05:16:13;3.30;99.90
5280;DHT22;2663;53.588;10.010;2022-11-20T05:18:40;3.20;99.90
5280;DHT22;2663;53.588;10.010;2022-11-20T05:21:08;3.10;99.90
5280;DHT22;2663;53.588;10.010;2022-11-20T05:23:35;3.10;99.90
5280;DHT22;2663;53.588;10.010;2022-11-20T05:26:03;3.20;99.90
5280;DHT22;2663;53.588;10.010;2022-11-20T05:28:31;3.20;99.90
5280;DHT22;2663;53.588;10.010;2022-11-20T05:31:12;3.20;99.90
5280;DHT22;2663;53.588;10.010;2022-11-20T05:33:43;3.20;99.90
5280;DHT22;2663;53.588;10.010;2022-11-20T05:36:12;3.20;99.90
5280;DHT22;2663;53.588;10.010;2022-11-20T05:38:39;3.20;99.90
5280;DHT22;2663;53.588;10.010;2022-11-20T05:41:07;3.30;99.90
5280;DHT22;2663;53.588;10.010;2022-11-20T05:43:38;3.20;99.90
5280;DHT22;2663;53.588;10.010;2022-11-20T05:46:07;3.20;99.90
5280;DHT22;2663;53.588;10.010;2022-11-20T05:48:34;3.10;99.90
5280;DHT22;2663;53.588;10.010;2022-11-20T05:51:03;3.10;99.90
5280;DHT22;2663;53.588;10.010;2022-11-20T05:53:32;3.10;99.90
5280;DHT22;2663;53.588;10.010;2022-11-20T05:56:05;3.10;99.90
5280;DHT22;2663;53.588;10.010;2022-11-20T05:58:33;3.10;99.90
5280;DHT22;2663;53.588;10.010;2022-11-20T06:03:31;3.10;99.90
5280;DHT22;2663;53.588;10.010;2022-11-20T06:06:02;3.10;99.90
5280;DHT22;2663;53.588;10.010;2022-11-20T06:08:29;3.20;99.90
5280;DHT22;2663;53.588;10.010;2022-11-20T06:10:56;3.20;99.90
5280;DHT22;2663;53.588;10.010;2022-11-20T06:13:23;3.30;99.90
5280;DHT22;2663;53.588;10.010;2022-11-20T06:15:50;3.30;99.90
5280;DHT22;2663;53.588;10.010;2022-11-20T06:18:18;3.50;99.90
5280;DHT22;2663;53.588;10.010;2022-11-20T06:20:46;3.40;99.90
5280;DHT22;2663;53.588;10.010;2022-11-20T06:23:13;3.30;99.90
5280;DHT22;2663;53.588;10.010;2022-11-20T06:25:41;3.20;99.90
5280;DHT22;2663;53.588;10.010;2022-11-20T06:28:08;3.10;99.90
5280;DHT22;2663;53.588;10.010;2022-11-20T06:30:35;3.10;99.90
5280;DHT22;2663;53.588;10.010;2022-11-20T06:33:02;3.10;99.90
5280;DHT22;2663;53.588;10.010;2022-11-20T06:35:29;3.00;99.90
5280;DHT22;2663;53.588;10.010;2022-11-20T06:37:55;3.00;99.90
5280;DHT22;2663;53.588;10.010;2022-11-20T06:40:22;3.10;99.90
5280;DHT22;2663;53.588;10.010;2022-11-20T06:42:49;3.20;99.90
5280;DHT22;2663;53.588;10.010;2022-11-20T06:45:16;3.10;99.90
5280;DHT22;2663;53.588;10.010;2022-11-20T06:47:42;3.10;99.90
5280;DHT22;2663;53.588;10.010;2022-11-20T06:50:09;3.00;99.90
5280;DHT22;2663;53.588;10.010;2022-11-20T06:52:36;3.00;99.90
5280;DHT22;2663;53.588;10.010;2022-11-20T06:55:08;3.00;99.90
5280;DHT22;2663;53.588;10.010;2022-11-20T06:57:35;2.90;99.90
5280;DHT22;2663;53.588;10.010;2022-11-20T07:00:02;2.90;99.90
5280;DHT22;2663;53.588;10.010;2022-11-20T07:02:29;2.90;99.90
5280;DHT22;2663;53.588;10.010;2022-11-20T07:04:55;2.90;99.90
5280;DHT22;2663;53.588;10.010;2022-11-20T07:07:22;2.90;99.90
5280;DHT22;2663;53.588;10.010;2022-11-20T07:09:49;2.90;99.90
5280;DHT22;2663;53.588;10.010;2022-11-20T07:12:16;3.00;99.90
5280;DHT22;2663;53.588;10.010;2022-11-20T07:14:42;3.00;99.90
5280;DHT22;2663;53.588;10.010;2022-11-20T07:17:09;3.00;99.90
5280;DHT22;2663;53.588;10.010;2022-11-20T07:19:36;2.90;99.90
5280;DHT22;2663;53.588;10.010;2022-11-20T07:22:02;2.90;99.90
5280;DHT22;2663;53.588;10.010;2022-11-20T07:24:29;3.00;99.90
5280;DHT22;2663;53.588;10.010;2022-11-20T07:26:55;3.00;99.90
5280;DHT22;2663;53.588;10.010;2022-11-20T07:29:22;3.00;99.90
5280;DHT22;2663;53.588;10.010;2022-11-20T07:31:49;2.90;99.90
5280;DHT22;2663;53.588;10.010;2022-11-20T07:34:16;3.00;99.90
5280;DHT22;2663;53.588;10.010;2022-11-20T07:36:42;3.00;99.90
5280;DHT22;2663;53.588;10.010;2022-11-20T07:39:09;3.00;99.90
5280;DHT22;2663;53.588;10.010;2022-11-20T07:41:36;3.10;99.90
5280;DHT22;2663;53.588;10.010;2022-11-20T07:44:02;3.20;99.90
5280;DHT22;2663;53.588;10.010;2022-11-20T07:46:29;3.20;99.90
5280;DHT22;2663;53.588;10.010;2022-11-20T07:48:56;3.10;99.90
5280;DHT22;2663;53.588;10.010;2022-11-20T07:51:22;2.90;99.90
5280;DHT22;2663;53.588;10.010;2022-11-20T07:53:52;3.10;99.90
5280;DHT22;2663;53.588;10.010;2022-11-20T07:56:19;3.20;99.90
5280;DHT22;2663;53.588;10.010;2022-11-20T07:58:46;3.10;99.90
5280;DHT22;2663;53.588;10.010;2022-11-20T08:01:13;3.10;99.90
5280;DHT22;2663;53.588;10.010;2022-11-20T08:03:40;3.70;99.90
5280;DHT22;2663;53.588;10.010;2022-11-20T08:06:07;4.50;99.90
5280;DHT22;2663;53.588;10.010;2022-11-20T08:08:33;4.40;99.90
5280;DHT22;2663;53.588;10.010;2022-11-20T08:11:05;3.90;99.90
5280;DHT22;2663;53.588;10.010;2022-11-20T08:13:50;3.70;99.90
5280;DHT22;2663;53.588;10.010;2022-11-20T08:16:36;4.10;99.90
5280;DHT22;2663;53.588;10.010;2022-11-20T08:19:03;4.10;99.90
5280;DHT22;2663;53.588;10.010;2022-11-20T08:21:30;3.80;99.90
5280;DHT22;2663;53.588;10.010;2022-11-20T08:24:03;3.70;99.90
5280;DHT22;2663;53.588;10.010;2022-11-20T08:26:30;3.60;99.90
5280;DHT22;2663;53.588;10.010;2022-11-20T08:28:57;3.40;99.90
5280;DHT22;2663;53.588;10.010;2022-11-20T08:31:26;3.00;99.90
5280;DHT22;2663;53.588;10.010;2022-11-20T08:33:53;2.90;99.90
5280;DHT22;2663;53.588;10.010;2022-11-20T08:36:21;2.80;99.90
5280;DHT22;2663;53.588;10.010;2022-11-20T08:38:53;2.80;99.90
5280;DHT22;2663;53.588;10.010;2022-11-20T08:41:21;2.70;99.90
5280;DHT22;2663;53.588;10.010;2022-11-20T08:43:52;2.70;99.90
5280;DHT22;2663;53.588;10.010;2022-11-20T08:46:19;2.70;99.90
5280;DHT22;2663;53.588;10.010;2022-11-20T08:48:46;2.80;99.90
5280;DHT22;2663;53.588;10.010;2022-11-20T08:51:13;2.80;99.90
5280;DHT22;2663;53.588;10.010;2022-11-20T08:53:40;2.80;99.90
5280;DHT22;2663;53.588;10.010;2022-11-20T08:56:07;2.80;99.90
5280;DHT22;2663;53.588;10.010;2022-11-20T08:58:33;2.90;99.90
5280;DHT22;2663;53.588;10.010;2022-11-20T09:01:21;3.00;99.90
5280;DHT22;2663;53.588;10.010;2022-11-20T09:03:48;3.10;99.90
5280;DHT22;2663;53.588;10.010;2022-11-20T09:06:15;3.20;99.90
5280;DHT22;2663;53.588;10.010;2022-11-20T09:08:41;3.30;99.90
5280;DHT22;2663;53.588;10.010;2022-11-20T09:11:09;3.30;99.90
5280;DHT22;2663;53.588;10.010;2022-11-20T09:13:36;3.10;99.90
5280;DHT22;2663;53.588;10.010;2022-11-20T09:16:05;3.00;99.90
5280;DHT22;2663;53.588;10.010;2022-11-20T09:18:33;3.00;99.90
5280;DHT22;2663;53.588;10.010;2022-11-20T09:21:02;3.00;99.90
5280;DHT22;2663;53.588;10.010;2022-11-20T09:23:34;2.90;99.90
5280;DHT22;2663;53.588;10.010;2022-11-20T09:26:09;3.00;99.90
5280;DHT22;2663;53.588;10.010;2022-11-20T09:28:37;3.10;99.90
5280;DHT22;2663;53.588;10.010;2022-11-20T09:31:08;3.10;99.90
5280;DHT22;2663;53.588;10.010;2022-11-20T09:33:35;3.20;99.90
5280;DHT22;2663;53.588;10.010;2022-11-20T09:36:02;3.20;99.90
5280;DHT22;2663;53.588;10.010;2022-11-20T09:38:29;3.20;99.90
5280;DHT22;2663;53.588;10.010;2022-11-20T09:41:03;3.30;99.90
5280;DHT22;2663;53.588;10.010;2022-11-20T09:43:50;3.30;99.90
5280;DHT22;2663;53.588;10.010;2022-11-20T09:46:40;3.30;99.90
5280;DHT22;2663;53.588;10.010;2022-11-20T09:52:00;3.10;99.90
5280;DHT22;2663;53.588;10.010;2022-11-20T09:54:38;3.10;99.90
5280;DHT22;2663;53.588;10.010;2022-11-20T09:57:12;3.00;99.90
5280;DHT22;2663;53.588;10.010;2022-11-20T09:59:50;3.00;99.90
5280;DHT22;2663;53.588;10.010;2022-11-20T10:05:01;3.00;99.90
5280;DHT22;2663;53.588;10.010;2022-11-20T10:07:36;3.00;99.90
5280;DHT22;2663;53.588;10.010;2022-11-20T10:10:13;3.00;99.90
5280;DHT22;2663;53.588;10.010;2022-11-20T10:27:35;3.50;99.90
5280;DHT22;2663;53.588;10.010;2022-11-20T10:30:14;3.60;99.90
5280;DHT22;2663;53.588;10.010;2022-11-20T10:33:05;3.40;99.90
5280;DHT22;2663;53.588;10.010;2022-11-20T10:38:15;3.50;99.90
5280;DHT22;2663;53.588;10.010;2022-11-20T10:40:45;3.60;99.90
5280;DHT22;2663;53.588;10.010;2022-11-20T10:43:32;3.80;99.90
5280;DHT22;2663;53.588;10.010;2022-11-20T10:46:03;3.70;99.90
5280;DHT22;2663;53.588;10.010;2022-11-20T10:48:32;3.50;99.90
5280;DHT22;2663;53.588;10.010;2022-11-20T10:54:24;3.60;99.90
5280;DHT22;2663;53.588;10.010;2022-11-20T10:56:56;4.10;99.90
5280;DHT22;2663;53.588;10.010;2022-11-20T10:59:35;4.10;99.90
5280;DHT22;2663;53.588;10.010;2022-11-20T11:02:35;4.20;99.90
5280;DHT22;2663;53.588;10.010;2022-11-20T11:08:01;4.00;99.90
5280;DHT22;2663;53.588;10.010;2022-11-20T11:10:57;4.00;99.90
5280;DHT22;2663;53.588;10.010;2022-11-20T11:13:29;4.00;99.90
5280;DHT22;2663;53.588;10.010;2022-11-20T11:15:57;3.90;99.90
5280;DHT22;2663;53.588;10.010;2022-11-20T11:18:30;3.70;99.90
5280;DHT22;2663;53.588;10.010;2022-11-20T11:20:59;3.70;99.90
5280;DHT22;2663;53.588;10.010;2022-11-20T11:23:34;3.80;99.90
5280;DHT22;2663;53.588;10.010;2022-11-20T11:26:05;3.80;99.90
5280;DHT22;2663;53.588;10.010;2022-11-20T11:28:33;3.80;99.90
5280;DHT22;2663;53.588;10.010;2022-11-20T11:30:59;3.70;99.90
5280;DHT22;2663;53.588;10.010;2022-11-20T11:33:28;3.70;99.90
5280;DHT22;2663;53.588;10.010;2022-11-20T11:36:00;3.70;99.90
5280;DHT22;2663;53.588;10.010;2022-11-20T11:38:29;3.90;99.90
5280;DHT22;2663;53.588;10.010;2022-11-20T11:40:57;3.90;99.90
5280;DHT22;2663;53.588;10.010;2022-11-20T11:43:30;3.90;99.90
5280;DHT22;2663;53.588;10.010;2022-11-20T11:46:27;3.90;99.90
5280;DHT22;2663;53.588;10.010;2022-11-20T11:51:46;3.90;99.90
5280;DHT22;2663;53.588;10.010;2022-11-20T11:54:25;3.90;99.90
5280;DHT22;2663;53.588;10.010;2022-11-20T11:56:56;4.20;99.90
5280;DHT22;2663;53.588;10.010;2022-11-20T11:59:29;4.10;99.90
5280;DHT22;2663;53.588;10.010;2022-11-20T12:05:00;4.20;99.90
5280;DHT22;2663;53.588;10.010;2022-11-20T12:10:22;4.10;99.90
5280;DHT22;2663;53.588;10.010;2022-11-20T12:12:58;4.00;99.90
5280;DHT22;2663;53.588;10.010;2022-11-20T12:15:33;4.10;99.90
5280;DHT22;2663;53.588;10.010;2022-11-20T12:18:00;4.10;99.90
5280;DHT22;2663;53.588;10.010;2022-11-20T12:20:34;4.20;99.90
5280;DHT22;2663;53.588;10.010;2022-11-20T12:23:14;4.30;99.90
5280;DHT22;2663;53.588;10.010;2022-11-20T12:25:47;4.40;99.90
5280;DHT22;2663;53.588;10.010;2022-11-20T12:28:33;4.50;99.90
5280;DHT22;2663;53.588;10.010;2022-11-20T12:34:16;4.60;99.90
5280;DHT22;2663;53.588;10.010;2022-11-20T12:39:28;4.60;99.90
5280;DHT22;2663;53.588;10.010;2022-11-20T12:48:49;4.90;99.90
5280;DHT22;2663;53.588;10.010;2022-11-20T12:51:46;4.70;99.90
5280;DHT22;2663;53.588;10.010;2022-11-20T13:02:37;4.80;99.90
5280;DHT22;2663;53.588;10.010;2022-11-20T13:05:17;4.80;99.90
5280;DHT22;2663;53.588;10.010;2022-11-20T13:07:47;4.90;99.90
5280;DHT22;2663;53.588;10.010;2022-11-20T13:10:36;4.70;99.90
5280;DHT22;2663;53.588;10.010;2022-11-20T13:13:23;4.50;99.90
5280;DHT22;2663;53.588;10.010;2022-11-20T13:16:00;4.60;99.90
5280;DHT22;2663;53.588;10.010;2022-11-20T13:18:36;4.60;99.90
5280;DHT22;2663;53.588;10.010;2022-11-20T13:21:20;5.10;99.90
5280;DHT22;2663;53.588;10.010;2022-11-20T13:23:47;5.20;99.90
5280;DHT22;2663;53.588;10.010;2022-11-20T13:26:20;6.10;99.90
5280;DHT22;2663;53.588;10.010;2022-11-20T13:29:09;6.40;99.90
5280;DHT22;2663;53.588;10.010;2022-11-20T13:31:41;6.60;99.90
5280;DHT22;2663;53.588;10.010;2022-11-20T13:34:12;6.70;99.90
5280;DHT22;2663;53.588;10.010;2022-11-20T13:36:52;6.40;99.90
5280;DHT22;2663;53.588;10.010;2022-11-20T13:39:36;6.10;99.90
5280;DHT22;2663;53.588;10.010;2022-11-20T13:42:22;5.70;99.90
5280;DHT22;2663;53.588;10.010;2022-11-20T13:44:54;5.40;99.90
5280;DHT22;2663;53.588;10.010;2022-11-20T13:47:27;5.30;99.90
5280;DHT22;2663;53.588;10.010;2022-11-20T13:49:55;5.20;99.90
5280;DHT22;2663;53.588;10.010;2022-11-20T14:00:28;4.70;99.90
5280;DHT22;2663;53.588;10.010;2022-11-20T14:06:30;4.70;99.90
5280;DHT22;2663;53.588;10.010;2022-11-20T14:08:58;4.70;99.90
5280;DHT22;2663;53.588;10.010;2022-11-20T14:11:30;4.70;99.90
5280;DHT22;2663;53.588;10.010;2022-11-20T14:14:16;4.70;99.90
5280;DHT22;2663;53.588;10.010;2022-11-20T14:16:43;4.60;99.90
5280;DHT22;2663;53.588;10.010;2022-11-20T14:22:09;4.60;99.90
5280;DHT22;2663;53.588;10.010;2022-11-20T14:24:34;4.70;99.90
5280;DHT22;2663;53.588;10.010;2022-11-20T14:27:00;4.70;99.90
5280;DHT22;2663;53.588;10.010;2022-11-20T14:29:33;4.60;99.90
5280;DHT22;2663;53.588;10.010;2022-11-20T14:32:01;4.50;99.90
5280;DHT22;2663;53.588;10.010;2022-11-20T14:34:31;4.60;99.90
5280;DHT22;2663;53.588;10.010;2022-11-20T14:37:01;4.50;99.90
5280;DHT22;2663;53.588;10.010;2022-11-20T14:39:36;4.50;99.90
5280;DHT22;2663;53.588;10.010;2022-11-20T14:42:15;4.60;99.90
5280;DHT22;2663;53.588;10.010;2022-11-20T14:44:42;4.50;99.90
5280;DHT22;2663;53.588;10.010;2022-11-20T14:47:13;4.50;99.90
5280;DHT22;2663;53.588;10.010;2022-11-20T14:49:41;4.70;99.90
5280;DHT22;2663;53.588;10.010;2022-11-20T14:52:20;4.80;99.90
5280;DHT22;2663;53.588;10.010;2022-11-20T14:54:54;5.20;99.90
5280;DHT22;2663;53.588;10.010;2022-11-20T14:57:35;4.80;99.90
5280;DHT22;2663;53.588;10.010;2022-11-20T15:02:45;4.90;99.90
5280;DHT22;2663;53.588;10.010;2022-11-20T15:05:13;4.80;99.90
5280;DHT22;2663;53.588;10.010;2022-11-20T15:07:46;4.70;99.90
5280;DHT22;2663;53.588;10.010;2022-11-20T15:10:22;4.70;99.90
5280;DHT22;2663;53.588;10.010;2022-11-20T15:12:54;4.60;99.90
5280;DHT22;2663;53.588;10.010;2022-11-20T15:15:30;4.60;99.90
5280;DHT22;2663;53.588;10.010;2022-11-20T15:17:58;4.60;99.90
5280;DHT22;2663;53.588;10.010;2022-11-20T15:20:27;4.60;99.90
5280;DHT22;2663;53.588;10.010;2022-11-20T15:22:54;4.60;99.90
5280;DHT22;2663;53.588;10.010;2022-11-20T15:25:21;4.70;99.90
5280;DHT22;2663;53.588;10.010;2022-11-20T15:27:55;4.60;99.90
5280;DHT22;2663;53.588;10.010;2022-11-20T15:30:22;4.70;99.90
5280;DHT22;2663;53.588;10.010;2022-11-20T15:32:49;4.70;99.90
5280;DHT22;2663;53.588;10.010;2022-11-20T15:35:16;4.80;99.90
5280;DHT22;2663;53.588;10.010;2022-11-20T15:37:43;4.90;99.90
5280;DHT22;2663;53.588;10.010;2022-11-20T15:40:10;4.90;99.90
5280;DHT22;2663;53.588;10.010;2022-11-20T15:42:37;5.00;99.90
5280;DHT22;2663;53.588;10.010;2022-11-20T15:45:04;5.00;99.90
5280;DHT22;2663;53.588;10.010;2022-11-20T15:47:34;5.00;99.90
5280;DHT22;2663;53.588;10.010;2022-11-20T15:50:02;4.90;99.90
5280;DHT22;2663;53.588;10.010;2022-11-20T15:52:29;4.90;99.90
5280;DHT22;2663;53.588;10.010;2022-11-20T15:55:09;5.10;99.90
5280;DHT22;2663;53.588;10.010;2022-11-20T15:57:36;4.80;99.90
5280;DHT22;2663;53.588;10.010;2022-11-20T16:00:03;4.80;99.90
5280;DHT22;2663;53.588;10.010;2022-11-20T16:02:30;4.70;99.90
5280;DHT22;2663;53.588;10.010;2022-11-20T16:04:57;4.70;99.90
5280;DHT22;2663;53.588;10.010;2022-11-20T16:07:24;4.80;99.90
5280;DHT22;2663;53.588;10.010;2022-11-20T16:09:50;4.80;99.90
5280;DHT22;2663;53.588;10.010;2022-11-20T16:12:17;4.80;99.90
5280;DHT22;2663;53.588;10.010;2022-11-20T16:15:04;4.10;99.90
5280;DHT22;2663;53.588;10.010;2022-11-20T16:17:49;4.80;99.90
5280;DHT22;2663;53.588;10.010;2022-11-20T16:20:16;4.80;99.90
5280;DHT22;2663;53.588;10.010;2022-11-20T16:22:43;4.80;99.90
5280;DHT22;2663;53.588;10.010;2022-11-20T16:25:09;4.80;99.90
5280;DHT22;2663;53.588;10.010;2022-11-20T16:27:36;4.80;99.90
5280;DHT22;2663;53.588;10.010;2022-11-20T16:30:03;4.70;99.90
5280;DHT22;2663;53.588;10.010;2022-11-20T16:32:29;4.70;99.90
5280;DHT22;2663;53.588;10.010;2022-11-20T16:34:57;4.70;99.90
5280;DHT22;2663;53.588;10.010;2022-11-20T16:37:23;4.80;99.90
5280;DHT22;2663;53.588;10.010;2022-11-20T16:39:50;4.80;99.90
5280;DHT22;2663;53.588;10.010;2022-11-20T16:42:16;4.80;99.90
5280;DHT22;2663;53.588;10.010;2022-11-20T16:44:45;4.80;99.90
5280;DHT22;2663;53.588;10.010;2022-11-20T16:47:12;4.90;99.90
5280;DHT22;2663;53.588;10.010;2022-11-20T16:49:39;4.90;99.90
5280;DHT22;2663;53.588;10.010;2022-11-20T16:52:06;4.90;99.90
5280;DHT22;2663;53.588;10.010;2022-11-20T16:54:33;4.90;99.90
5280;DHT22;2663;53.588;10.010;2022-11-20T16:56:59;4.90;99.90
5280;DHT22;2663;53.588;10.010;2022-11-20T16:59:26;4.90;99.90
5280;DHT22;2663;53.588;10.010;2022-11-20T17:01:53;4.90;99.90
5280;DHT22;2663;53.588;10.010;2022-11-20T17:04:19;4.90;99.90
5280;DHT22;2663;53.588;10.010;2022-11-20T17:06:47;4.90;99.90
5280;DHT22;2663;53.588;10.010;2022-11-20T17:09:13;5.00;99.90
5280;DHT22;2663;53.588;10.010;2022-11-20T17:11:40;5.10;99.90
5280;DHT22;2663;53.588;10.010;2022-11-20T17:14:07;5.00;99.90
5280;DHT22;2663;53.588;10.010;2022-11-20T17:16:36;5.00;99.90
5280;DHT22;2663;53.588;10.010;2022-11-20T17:19:03;5.00;99.90
5280;DHT22;2663;53.588;10.010;2022-11-20T17:21:31;5.00;99.90
5280;DHT22;2663;53.588;10.010;2022-11-20T17:24:00;5.00;99.90
5280;DHT22;2663;53.588;10.010;2022-11-20T17:26:30;5.00;99.90
5280;DHT22;2663;53.588;10.010;2022-11-20T17:28:59;5.00;99.90
5280;DHT22;2663;53.588;10.010;2022-11-20T17:31:28;4.90;99.90
5280;DHT22;2663;53.588;10.010;2022-11-20T17:33:55;4.90;99.90
5280;DHT22;2663;53.588;10.010;2022-11-20T17:36:22;4.90;99.90
5280;DHT22;2663;53.588;10.010;2022-11-20T17:38:48;4.90;99.90